HTAR

Details ICAO HTAR (ARK)
Name ARUSHA
Region Tanzania
Timezone Africa/Dar_es_Salaam (UTC+3.0)
Plans Departing 5
Arriving 11
Stats Elevation 4,550 ft / 1,387 m (AMSL)
Location -3.367236° 36.625583°
Runways 1
Magnetic Variation 0.014° W
Sunrise 2017-12-15 03:20:34 UTC / 2017-12-15 06:20:34 Local
Sunset 2017-12-15 15:39:26 UTC / 2017-12-15 18:39:26 Local
Advertisement - Login to hide

Runways

ID Width Length Bearing (true) Bearing (mag) Surface Threshold Offset Overrun Length
09 105 ft / 32 m 5,371 ft / 1,637 m 92.70° 92.71° Asphalt 0 ft / 0 m 0 ft / 0 m
27 105 ft / 32 m 5,371 ft / 1,637 m 272.70° 272.71° Asphalt 0 ft / 0 m 600 ft / 183 m

Map

Weather


0- 5 10 15 20 25 30 35+ Temperature / ° C

Clouds and Precipitation
Forecast for 2017-12-15 12:00 UTC. Updated an hour ago

Ground ~20,000 ft ~40,000 ft Winds

METAR

HTAR 151200Z 03005KT 9999 BKN035 FEW034CB 30/15 Q1014

TAF

Not found

Frequencies

Tower 118.40 MHz TWR
Warning: Do not use this data for real-world aviation or navigation. No guarantee of current accuracy is given.